sensor_id;sensor_type;location;lat;lon;timestamp;pressure;altitude;pressure_sealevel;temperature;humidity
57606;BME280;43430;48.204;11.556;2023-01-28T00:00:25;96412.59;;;-2.09;100.00
57606;BME280;43430;48.204;11.556;2023-01-28T00:02:51;96411.25;;;-2.13;100.00
57606;BME280;43430;48.204;11.556;2023-01-28T00:05:16;96408.78;;;-2.15;100.00
57606;BME280;43430;48.204;11.556;2023-01-28T00:07:42;96412.44;;;-2.17;100.00
57606;BME280;43430;48.204;11.556;2023-01-28T00:10:08;96412.16;;;-2.14;100.00
57606;BME280;43430;48.204;11.556;2023-01-28T00:12:33;96407.56;;;-2.20;100.00
57606;BME280;43430;48.204;11.556;2023-01-28T00:14:59;96407.56;;;-2.20;100.00
57606;BME280;43430;48.204;11.556;2023-01-28T00:17:24;96415.84;;;-2.17;100.00
57606;BME280;43430;48.204;11.556;2023-01-28T00:19:50;96413.13;;;-2.15;100.00
57606;BME280;43430;48.204;11.556;2023-01-28T00:22:15;96410.69;;;-2.07;100.00
57606;BME280;43430;48.204;11.556;2023-01-28T00:24:41;96415.75;;;-2.05;100.00
57606;BME280;43430;48.204;11.556;2023-01-28T00:27:06;96412.34;;;-2.06;100.00
57606;BME280;43430;48.204;11.556;2023-01-28T00:29:31;96411.34;;;-2.15;100.00
57606;BME280;43430;48.204;11.556;2023-01-28T00:31:57;96411.63;;;-2.18;100.00
57606;BME280;43430;48.204;11.556;2023-01-28T00:34:22;96409.16;;;-2.29;100.00
57606;BME280;43430;48.204;11.556;2023-01-28T00:36:48;96403.69;;;-2.35;100.00
57606;BME280;43430;48.204;11.556;2023-01-28T00:39:22;96406.72;;;-2.30;100.00
57606;BME280;43430;48.204;11.556;2023-01-28T00:41:48;96414.31;;;-2.29;100.00
57606;BME280;43430;48.204;11.556;2023-01-28T00:44:13;96415.38;;;-2.31;100.00
57606;BME280;43430;48.204;11.556;2023-01-28T00:46:38;96411.47;;;-2.26;100.00
57606;BME280;43430;48.204;11.556;2023-01-28T00:49:06;96409.69;;;-2.25;100.00
57606;BME280;43430;48.204;11.556;2023-01-28T00:51:31;96410.13;;;-2.20;100.00
57606;BME280;43430;48.204;11.556;2023-01-28T00:53:57;96411.59;;;-2.27;100.00
57606;BME280;43430;48.204;11.556;2023-01-28T00:56:22;96412.69;;;-2.30;100.00
57606;BME280;43430;48.204;11.556;2023-01-28T00:58:48;96415.63;;;-2.34;100.00
57606;BME280;43430;48.204;11.556;2023-01-28T01:01:16;96408.34;;;-2.29;100.00
57606;BME280;43430;48.204;11.556;2023-01-28T01:03:42;96412.69;;;-2.30;100.00
57606;BME280;43430;48.204;11.556;2023-01-28T01:06:09;96413.75;;;-2.32;100.00
57606;BME280;43430;48.204;11.556;2023-01-28T01:08:35;96419.44;;;-2.39;100.00
57606;BME280;43430;48.204;11.556;2023-01-28T01:11:04;96414.78;;;-2.45;100.00
57606;BME280;43430;48.204;11.556;2023-01-28T01:13:31;96416.44;;;-2.44;100.00
57606;BME280;43430;48.204;11.556;2023-01-28T01:16:07;96420.81;;;-2.34;100.00
57606;BME280;43430;48.204;11.556;2023-01-28T01:18:34;96427.94;;;-2.27;100.00
57606;BME280;43430;48.204;11.556;2023-01-28T01:21:00;96425.19;;;-2.25;100.00
57606;BME280;43430;48.204;11.556;2023-01-28T01:23:26;96424.53;;;-2.18;100.00
57606;BME280;43430;48.204;11.556;2023-01-28T01:25:51;96422.78;;;-2.07;100.00
57606;BME280;43430;48.204;11.556;2023-01-28T01:28:17;96423.31;;;-2.13;100.00
57606;BME280;43430;48.204;11.556;2023-01-28T01:30:43;96421.69;;;-2.15;100.00
57606;BME280;43430;48.204;11.556;2023-01-28T01:33:08;96429.31;;;-2.13;100.00
57606;BME280;43430;48.204;11.556;2023-01-28T01:35:33;96425.09;;;-2.14;100.00
57606;BME280;43430;48.204;11.556;2023-01-28T01:37:59;96431.22;;;-2.15;100.00
57606;BME280;43430;48.204;11.556;2023-01-28T01:40:24;96429.84;;;-2.19;100.00
57606;BME280;43430;48.204;11.556;2023-01-28T01:42:49;96434.75;;;-2.16;100.00
57606;BME280;43430;48.204;11.556;2023-01-28T01:45:15;96428.91;;;-2.08;100.00
57606;BME280;43430;48.204;11.556;2023-01-28T01:47:57;96437.84;;;-2.22;100.00
57606;BME280;43430;48.204;11.556;2023-01-28T01:50:35;96439.31;;;-2.29;100.00
57606;BME280;43430;48.204;11.556;2023-01-28T01:53:07;96438.25;;;-2.27;100.00
57606;BME280;43430;48.204;11.556;2023-01-28T01:55:37;96432.53;;;-2.30;100.00
57606;BME280;43430;48.204;11.556;2023-01-28T01:58:07;96432.66;;;-2.32;100.00
57606;BME280;43430;48.204;11.556;2023-01-28T02:00:34;96436.84;;;-2.31;100.00
57606;BME280;43430;48.204;11.556;2023-01-28T02:03:00;96441.66;;;-2.26;100.00
57606;BME280;43430;48.204;11.556;2023-01-28T02:05:25;96440.00;;;-2.27;100.00
57606;BME280;43430;48.204;11.556;2023-01-28T02:07:53;96439.31;;;-2.29;100.00
57606;BME280;43430;48.204;11.556;2023-01-28T02:10:40;96439.88;;;-2.26;100.00
57606;BME280;43430;48.204;11.556;2023-01-28T02:13:05;96446.63;;;-2.34;100.00
57606;BME280;43430;48.204;11.556;2023-01-28T02:15:30;96446.63;;;-2.34;100.00
57606;BME280;43430;48.204;11.556;2023-01-28T02:17:56;96452.63;;;-2.34;100.00
57606;BME280;43430;48.204;11.556;2023-01-28T02:20:39;96449.75;;;-2.41;100.00
57606;BME280;43430;48.204;11.556;2023-01-28T02:28:47;96450.94;;;-2.45;100.00
57606;BME280;43430;48.204;11.556;2023-01-28T02:32:04;96448.34;;;-2.45;100.00
57606;BME280;43430;48.204;11.556;2023-01-28T02:35:12;96446.06;;;-2.48;100.00
57606;BME280;43430;48.204;11.556;2023-01-28T02:37:50;96454.47;;;-2.46;100.00
57606;BME280;43430;48.204;11.556;2023-01-28T02:40:22;96459.13;;;-2.40;100.00
57606;BME280;43430;48.204;11.556;2023-01-28T02:42:49;96460.38;;;-2.34;100.00
57606;BME280;43430;48.204;11.556;2023-01-28T02:45:20;96460.75;;;-2.39;100.00
57606;BME280;43430;48.204;11.556;2023-01-28T02:47:45;96462.91;;;-2.44;100.00
57606;BME280;43430;48.204;11.556;2023-01-28T02:50:25;96455.59;;;-2.39;100.00
57606;BME280;43430;48.204;11.556;2023-01-28T02:53:17;96456.69;;;-2.31;100.00
57606;BME280;43430;48.204;11.556;2023-01-28T02:56:29;96466.31;;;-2.43;100.00
57606;BME280;43430;48.204;11.556;2023-01-28T02:59:02;96468.84;;;-2.53;100.00
57606;BME280;43430;48.204;11.556;2023-01-28T03:02:01;96463.19;;;-2.47;100.00
57606;BME280;43430;48.204;11.556;2023-01-28T03:04:32;96470.22;;;-2.49;100.00
57606;BME280;43430;48.204;11.556;2023-01-28T03:07:04;96469.41;;;-2.49;100.00
57606;BME280;43430;48.204;11.556;2023-01-28T03:09:32;96480.44;;;-2.47;100.00
57606;BME280;43430;48.204;11.556;2023-01-28T03:12:11;96475.28;;;-2.47;100.00
57606;BME280;43430;48.204;11.556;2023-01-28T03:15:00;96472.63;;;-2.57;100.00
57606;BME280;43430;48.204;11.556;2023-01-28T03:17:53;96479.25;;;-2.64;100.00
57606;BME280;43430;48.204;11.556;2023-01-28T03:20:43;96479.94;;;-2.62;100.00
57606;BME280;43430;48.204;11.556;2023-01-28T03:23:36;96483.47;;;-2.63;100.00
57606;BME280;43430;48.204;11.556;2023-01-28T03:26:24;96484.41;;;-2.64;100.00
57606;BME280;43430;48.204;11.556;2023-01-28T03:29:11;96483.91;;;-2.58;100.00
57606;BME280;43430;48.204;11.556;2023-01-28T03:31:57;96491.38;;;-2.55;100.00
57606;BME280;43430;48.204;11.556;2023-01-28T03:34:43;96479.31;;;-2.54;100.00
57606;BME280;43430;48.204;11.556;2023-01-28T03:37:28;96483.28;;;-2.50;100.00
57606;BME280;43430;48.204;11.556;2023-01-28T03:39:54;96480.81;;;-2.52;100.00
57606;BME280;43430;48.204;11.556;2023-01-28T03:42:22;96486.41;;;-2.47;100.00
57606;BME280;43430;48.204;11.556;2023-01-28T03:44:47;96486.03;;;-2.42;100.00
57606;BME280;43430;48.204;11.556;2023-01-28T03:47:20;96482.78;;;-2.34;100.00
57606;BME280;43430;48.204;11.556;2023-01-28T03:49:48;96477.88;;;-2.38;100.00
57606;BME280;43430;48.204;11.556;2023-01-28T03:52:16;96478.66;;;-2.47;100.00
57606;BME280;43430;48.204;11.556;2023-01-28T03:54:43;96477.97;;;-2.49;100.00
57606;BME280;43430;48.204;11.556;2023-01-28T03:57:09;96483.13;;;-2.49;100.00
57606;BME280;43430;48.204;11.556;2023-01-28T03:59:34;96475.38;;;-2.49;100.00
57606;BME280;43430;48.204;11.556;2023-01-28T04:01:59;96485.22;;;-2.43;100.00
57606;BME280;43430;48.204;11.556;2023-01-28T04:04:28;96484.31;;;-2.32;100.00
57606;BME280;43430;48.204;11.556;2023-01-28T04:06:54;96486.31;;;-2.35;100.00
57606;BME280;43430;48.204;11.556;2023-01-28T04:09:21;96489.41;;;-2.42;100.00
57606;BME280;43430;48.204;11.556;2023-01-28T04:11:47;96482.38;;;-2.40;100.00
57606;BME280;43430;48.204;11.556;2023-01-28T04:14:13;96497.72;;;-2.38;100.00
57606;BME280;43430;48.204;11.556;2023-01-28T04:16:40;96486.53;;;-2.48;100.00
57606;BME280;43430;48.204;11.556;2023-01-28T04:19:07;96482.72;;;-2.54;100.00
57606;BME280;43430;48.204;11.556;2023-01-28T04:21:33;96491.66;;;-2.58;100.00
57606;BME280;43430;48.204;11.556;2023-01-28T04:23:59;96492.22;;;-2.54;100.00
57606;BME280;43430;48.204;11.556;2023-01-28T04:26:24;96493.47;;;-2.49;100.00
57606;BME280;43430;48.204;11.556;2023-01-28T04:28:49;96497.94;;;-2.51;100.00
57606;BME280;43430;48.204;11.556;2023-01-28T04:31:15;96497.97;;;-2.41;100.00
57606;BME280;43430;48.204;11.556;2023-01-28T04:33:40;96497.72;;;-2.38;100.00
57606;BME280;43430;48.204;11.556;2023-01-28T04:36:06;96502.31;;;-2.42;100.00
57606;BME280;43430;48.204;11.556;2023-01-28T04:38:31;96505.16;;;-2.45;100.00
57606;BME280;43430;48.204;11.556;2023-01-28T04:40:57;96511.28;;;-2.46;100.00
57606;BME280;43430;48.204;11.556;2023-01-28T04:43:22;96512.28;;;-2.37;100.00
57606;BME280;43430;48.204;11.556;2023-01-28T04:45:48;96508.84;;;-2.47;100.00
57606;BME280;43430;48.204;11.556;2023-01-28T04:48:14;96512.34;;;-2.48;100.00
57606;BME280;43430;48.204;11.556;2023-01-28T04:50:41;96509.66;;;-2.47;100.00
57606;BME280;43430;48.204;11.556;2023-01-28T04:53:07;96514.13;;;-2.49;100.00
57606;BME280;43430;48.204;11.556;2023-01-28T04:55:33;96517.75;;;-2.51;100.00
57606;BME280;43430;48.204;11.556;2023-01-28T04:57:58;96518.03;;;-2.54;100.00
57606;BME280;43430;48.204;11.556;2023-01-28T05:00:24;96515.56;;;-2.56;100.00
57606;BME280;43430;48.204;11.556;2023-01-28T05:02:49;96518.47;;;-2.49;100.00
57606;BME280;43430;48.204;11.556;2023-01-28T05:05:15;96521.44;;;-2.54;100.00
57606;BME280;43430;48.204;11.556;2023-01-28T05:07:40;96517.97;;;-2.64;100.00
57606;BME280;43430;48.204;11.556;2023-01-28T05:10:06;96520.81;;;-2.67;100.00
57606;BME280;43430;48.204;11.556;2023-01-28T05:12:31;96516.22;;;-2.64;100.00
57606;BME280;43430;48.204;11.556;2023-01-28T05:14:58;96516.06;;;-2.62;100.00
57606;BME280;43430;48.204;11.556;2023-01-28T05:17:25;96524.34;;;-2.68;100.00
57606;BME280;43430;48.204;11.556;2023-01-28T05:19:51;96524.44;;;-2.70;100.00
57606;BME280;43430;48.204;11.556;2023-01-28T05:22:16;96525.00;;;-2.66;100.00
57606;BME280;43430;48.204;11.556;2023-01-28T05:24:42;96529.22;;;-2.65;100.00
57606;BME280;43430;48.204;11.556;2023-01-28T05:27:07;96529.19;;;-2.54;100.00
57606;BME280;43430;48.204;11.556;2023-01-28T05:29:33;96529.44;;;-2.57;100.00
57606;BME280;43430;48.204;11.556;2023-01-28T05:31:58;96533.25;;;-2.51;100.00
57606;BME280;43430;48.204;11.556;2023-01-28T05:34:23;96534.34;;;-2.54;100.00
57606;BME280;43430;48.204;11.556;2023-01-28T05:36:49;96541.13;;;-2.53;100.00
57606;BME280;43430;48.204;11.556;2023-01-28T05:39:14;96545.09;;;-2.49;100.00
57606;BME280;43430;48.204;11.556;2023-01-28T05:41:40;96550.97;;;-2.47;100.00
57606;BME280;43430;48.204;11.556;2023-01-28T05:44:05;96549.34;;;-2.48;100.00
57606;BME280;43430;48.204;11.556;2023-01-28T05:46:30;96551.91;;;-2.48;100.00
57606;BME280;43430;48.204;11.556;2023-01-28T05:48:56;96552.34;;;-2.43;100.00
57606;BME280;43430;48.204;11.556;2023-01-28T05:51:21;96558.88;;;-2.39;100.00
57606;BME280;43430;48.204;11.556;2023-01-28T05:53:46;96560.41;;;-2.36;100.00
57606;BME280;43430;48.204;11.556;2023-01-28T05:56:12;96565.13;;;-2.41;100.00
57606;BME280;43430;48.204;11.556;2023-01-28T05:58:37;96567.13;;;-2.45;100.00
57606;BME280;43430;48.204;11.556;2023-01-28T06:01:02;96564.13;;;-2.50;100.00
57606;BME280;43430;48.204;11.556;2023-01-28T06:03:28;96561.53;;;-2.50;100.00
57606;BME280;43430;48.204;11.556;2023-01-28T06:05:53;96564.13;;;-2.50;100.00
57606;BME280;43430;48.204;11.556;2023-01-28T06:08:19;96557.44;;;-2.52;100.00
57606;BME280;43430;48.204;11.556;2023-01-28T06:10:45;96570.09;;;-2.49;100.00
57606;BME280;43430;48.204;11.556;2023-01-28T06:13:10;96567.34;;;-2.57;100.00
57606;BME280;43430;48.204;11.556;2023-01-28T06:15:36;96566.53;;;-2.58;100.00
57606;BME280;43430;48.204;11.556;2023-01-28T06:18:01;96574.84;;;-2.54;100.00
57606;BME280;43430;48.204;11.556;2023-01-28T06:20:26;96580.81;;;-2.54;100.00
57606;BME280;43430;48.204;11.556;2023-01-28T06:22:52;96575.66;;;-2.54;100.00
57606;BME280;43430;48.204;11.556;2023-01-28T06:25:18;96574.56;;;-2.51;100.00
57606;BME280;43430;48.204;11.556;2023-01-28T06:27:43;96578.91;;;-2.52;100.00
57606;BME280;43430;48.204;11.556;2023-01-28T06:30:09;96590.75;;;-2.49;100.00
57606;BME280;43430;48.204;11.556;2023-01-28T06:32:35;96590.94;;;-2.41;100.00
57606;BME280;43430;48.204;11.556;2023-01-28T06:35:01;96589.25;;;-2.52;100.00
57606;BME280;43430;48.204;11.556;2023-01-28T06:37:26;96594.66;;;-2.55;100.00
57606;BME280;43430;48.204;11.556;2023-01-28T06:39:51;96593.03;;;-2.56;100.00
57606;BME280;43430;48.204;11.556;2023-01-28T06:42:17;96598.66;;;-2.62;100.00
57606;BME280;43430;48.204;11.556;2023-01-28T06:44:43;96602.22;;;-2.63;100.00
57606;BME280;43430;48.204;11.556;2023-01-28T06:47:08;96599.69;;;-2.53;100.00
57606;BME280;43430;48.204;11.556;2023-01-28T06:49:38;96599.53;;;-2.41;100.00
57606;BME280;43430;48.204;11.556;2023-01-28T06:52:03;96601.84;;;-2.38;100.00
57606;BME280;43430;48.204;11.556;2023-01-28T06:54:29;96604.88;;;-2.32;100.00
57606;BME280;43430;48.204;11.556;2023-01-28T06:56:54;96604.88;;;-2.32;100.00
57606;BME280;43430;48.204;11.556;2023-01-28T06:59:20;96600.53;;;-2.32;100.00
57606;BME280;43430;48.204;11.556;2023-01-28T07:01:45;96616.03;;;-2.32;100.00
57606;BME280;43430;48.204;11.556;2023-01-28T07:04:11;96614.13;;;-2.30;100.00
57606;BME280;43430;48.204;11.556;2023-01-28T07:06:36;96614.75;;;-2.38;100.00
57606;BME280;43430;48.204;11.556;2023-01-28T07:09:02;96620.44;;;-2.44;100.00
57606;BME280;43430;48.204;11.556;2023-01-28T07:11:27;96617.78;;;-2.32;100.00
57606;BME280;43430;48.204;11.556;2023-01-28T07:13:53;96625.16;;;-2.28;100.00
57606;BME280;43430;48.204;11.556;2023-01-28T07:16:18;96625.66;;;-2.34;100.00
57606;BME280;43430;48.204;11.556;2023-01-28T07:18:43;96622.13;;;-2.33;100.00
57606;BME280;43430;48.204;11.556;2023-01-28T07:21:09;96623.38;;;-2.27;100.00
57606;BME280;43430;48.204;11.556;2023-01-28T07:23:34;96627.47;;;-2.25;100.00
57606;BME280;43430;48.204;11.556;2023-01-28T07:26:03;96631.03;;;-2.26;100.00
57606;BME280;43430;48.204;11.556;2023-01-28T07:28:29;96628.28;;;-2.24;100.00
57606;BME280;43430;48.204;11.556;2023-01-28T07:30:54;96628.03;;;-2.21;100.00
57606;BME280;43430;48.204;11.556;2023-01-28T07:33:20;96633.91;;;-2.19;100.00
57606;BME280;43430;48.204;11.556;2023-01-28T07:35:47;96633.78;;;-2.18;100.00
57606;BME280;43430;48.204;11.556;2023-01-28T07:38:13;96632.56;;;-2.13;100.00
57606;BME280;43430;48.204;11.556;2023-01-28T07:40:38;96637.31;;;-2.19;100.00
57606;BME280;43430;48.204;11.556;2023-01-28T07:43:04;96642.03;;;-2.24;100.00
57606;BME280;43430;48.204;11.556;2023-01-28T07:45:31;96645.69;;;-2.26;100.00
57606;BME280;43430;48.204;11.556;2023-01-28T07:47:59;96649.91;;;-2.25;100.00
57606;BME280;43430;48.204;11.556;2023-01-28T07:50:25;96651.75;;;-2.16;100.00
57606;BME280;43430;48.204;11.556;2023-01-28T07:52:50;96655.41;;;-2.19;100.00
57606;BME280;43430;48.204;11.556;2023-01-28T07:55:16;96651.28;;;-2.21;100.00
57606;BME280;43430;48.204;11.556;2023-01-28T07:57:55;96656.91;;;-2.16;100.00
57606;BME280;43430;48.204;11.556;2023-01-28T08:00:22;96661.56;;;-2.10;100.00
57606;BME280;43430;48.204;11.556;2023-01-28T08:02:48;96665.81;;;-2.09;100.00
57606;BME280;43430;48.204;11.556;2023-01-28T08:05:18;96658.53;;;-2.15;100.00
57606;BME280;43430;48.204;11.556;2023-01-28T08:07:45;96663.72;;;-2.15;100.00
57606;BME280;43430;48.204;11.556;2023-01-28T08:10:11;96660.63;;;-2.09;100.00
57606;BME280;43430;48.204;11.556;2023-01-28T08:12:37;96668.81;;;-2.04;100.00
57606;BME280;43430;48.204;11.556;2023-01-28T08:15:03;96675.44;;;-2.11;100.00
57606;BME280;43430;48.204;11.556;2023-01-28T08:17:29;96667.69;;;-2.11;100.00
57606;BME280;43430;48.204;11.556;2023-01-28T08:19:55;96678.72;;;-2.09;100.00
57606;BME280;43430;48.204;11.556;2023-01-28T08:22:24;96674.78;;;-2.03;100.00
57606;BME280;43430;48.204;11.556;2023-01-28T08:24:49;96675.50;;;-2.01;100.00
57606;BME280;43430;48.204;11.556;2023-01-28T08:27:15;96677.94;;;-2.00;100.00
57606;BME280;43430;48.204;11.556;2023-01-28T08:29:40;96682.28;;;-2.00;100.00
57606;BME280;43430;48.204;11.556;2023-01-28T08:32:07;96685.75;;;-1.90;100.00
57606;BME280;43430;48.204;11.556;2023-01-28T08:34:33;96685.59;;;-1.98;100.00
57606;BME280;43430;48.204;11.556;2023-01-28T08:36:58;96687.09;;;-1.96;100.00
57606;BME280;43430;48.204;11.556;2023-01-28T08:39:24;96685.41;;;-1.85;100.00
57606;BME280;43430;48.204;11.556;2023-01-28T08:41:49;96684.88;;;-1.79;100.00
57606;BME280;43430;48.204;11.556;2023-01-28T08:44:14;96680.81;;;-1.72;100.00
57606;BME280;43430;48.204;11.556;2023-01-28T08:46:40;96683.88;;;-1.67;100.00
57606;BME280;43430;48.204;11.556;2023-01-28T08:49:05;96675.38;;;-1.79;100.00
57606;BME280;43430;48.204;11.556;2023-01-28T08:51:31;96689.78;;;-1.76;100.00
57606;BME280;43430;48.204;11.556;2023-01-28T08:53:56;96682.78;;;-1.64;100.00
57606;BME280;43430;48.204;11.556;2023-01-28T08:56:22;96687.63;;;-1.50;100.00
57606;BME280;43430;48.204;11.556;2023-01-28T08:58:47;96687.94;;;-1.44;100.00
57606;BME280;43430;48.204;11.556;2023-01-28T09:01:13;96684.78;;;-1.47;100.00
57606;BME280;43430;48.204;11.556;2023-01-28T09:03:38;96689.09;;;-1.57;100.00
57606;BME280;43430;48.204;11.556;2023-01-28T09:06:04;96696.44;;;-1.53;100.00
57606;BME280;43430;48.204;11.556;2023-01-28T09:08:30;96691.41;;;-1.54;100.00
57606;BME280;43430;48.204;11.556;2023-01-28T09:10:57;96698.63;;;-1.48;100.00
57606;BME280;43430;48.204;11.556;2023-01-28T09:13:23;96685.59;;;-1.47;100.00
57606;BME280;43430;48.204;11.556;2023-01-28T09:15:49;96684.91;;;-1.49;100.00
57606;BME280;43430;48.204;11.556;2023-01-28T09:18:15;96685.16;;;-1.52;100.00
57606;BME280;43430;48.204;11.556;2023-01-28T09:20:41;96684.47;;;-1.54;100.00
57606;BME280;43430;48.204;11.556;2023-01-28T09:23:07;96689.81;;;-1.46;100.00
57606;BME280;43430;48.204;11.556;2023-01-28T09:25:32;96693.16;;;-1.34;100.00
57606;BME280;43430;48.204;11.556;2023-01-28T09:28:00;96694.63;;;-1.31;100.00
57606;BME280;43430;48.204;11.556;2023-01-28T09:30:25;96688.78;;;-1.33;100.00
57606;BME280;43430;48.204;11.556;2023-01-28T09:32:52;96686.63;;;-1.28;100.00
57606;BME280;43430;48.204;11.556;2023-01-28T09:35:18;96690.47;;;-1.23;100.00
57606;BME280;43430;48.204;11.556;2023-01-28T09:37:44;96689.53;;;-1.12;100.00
57606;BME280;43430;48.204;11.556;2023-01-28T09:40:24;96679.81;;;-1.29;100.00
57606;BME280;43430;48.204;11.556;2023-01-28T09:45:39;96687.34;;;-1.16;100.00
57606;BME280;43430;48.204;11.556;2023-01-28T09:48:11;96681.91;;;-1.13;100.00
57606;BME280;43430;48.204;11.556;2023-01-28T09:50:41;96684.91;;;-1.08;100.00
57606;BME280;43430;48.204;11.556;2023-01-28T09:53:17;96685.63;;;-1.06;100.00
57606;BME280;43430;48.204;11.556;2023-01-28T09:55:59;96684.88;;;-1.18;100.00
57606;BME280;43430;48.204;11.556;2023-01-28T09:58:25;96677.31;;;-1.10;100.00
57606;BME280;43430;48.204;11.556;2023-01-28T10:03:46;96676.09;;;-0.86;100.00
57606;BME280;43430;48.204;11.556;2023-01-28T10:09:47;96658.84;;;-0.66;100.00
57606;BME280;43430;48.204;11.556;2023-01-28T10:15:22;96652.97;;;-0.59;100.00
57606;BME280;43430;48.204;11.556;2023-01-28T10:17:53;96655.44;;;-0.67;100.00
57606;BME280;43430;48.204;11.556;2023-01-28T10:20:32;96650.41;;;-0.68;100.00
57606;BME280;43430;48.204;11.556;2023-01-28T10:23:23;96650.38;;;-0.59;100.00
57606;BME280;43430;48.204;11.556;2023-01-28T10:25:51;96652.88;;;-0.47;100.00
57606;BME280;43430;48.204;11.556;2023-01-28T10:28:23;96650.28;;;-0.47;100.00
57606;BME280;43430;48.204;11.556;2023-01-28T10:30:50;96644.13;;;-0.46;100.00
57606;BME280;43430;48.204;11.556;2023-01-28T10:35:47;96636.22;;;-0.55;100.00
57606;BME280;43430;48.204;11.556;2023-01-28T10:38:15;96643.06;;;-0.34;100.00
57606;BME280;43430;48.204;11.556;2023-01-28T10:40:42;96643.28;;;-0.18;100.00
57606;BME280;43430;48.204;11.556;2023-01-28T10:43:07;96637.97;;;-0.07;100.00
57606;BME280;43430;48.204;11.556;2023-01-28T10:48:24;96636.59;;;-0.11;100.00
57606;BME280;43430;48.204;11.556;2023-01-28T10:50:52;96623.63;;;-0.01;100.00
57606;BME280;43430;48.204;11.556;2023-01-28T10:53:39;96633.44;;;0.05;100.00
57606;BME280;43430;48.204;11.556;2023-01-28T10:56:32;96634.22;;;0.25;100.00
57606;BME280;43430;48.204;11.556;2023-01-28T10:59:00;96637.06;;;0.32;100.00
57606;BME280;43430;48.204;11.556;2023-01-28T11:01:45;96626.94;;;0.38;100.00
57606;BME280;43430;48.204;11.556;2023-01-28T11:04:26;96627.47;;;0.42;100.00
57606;BME280;43430;48.204;11.556;2023-01-28T11:06:54;96631.00;;;0.41;100.00
57606;BME280;43430;48.204;11.556;2023-01-28T11:09:22;96627.53;;;0.22;100.00
57606;BME280;43430;48.204;11.556;2023-01-28T11:11:47;96629.03;;;0.15;100.00
57606;BME280;43430;48.204;11.556;2023-01-28T11:14:20;96631.22;;;0.10;100.00
57606;BME280;43430;48.204;11.556;2023-01-28T11:16:46;96628.59;;;0.20;100.00
57606;BME280;43430;48.204;11.556;2023-01-28T11:19:12;96627.94;;;0.28;100.00
57606;BME280;43430;48.204;11.556;2023-01-28T11:21:38;96622.13;;;0.43;100.00
57606;BME280;43430;48.204;11.556;2023-01-28T11:24:12;96622.34;;;0.60;100.00
57606;BME280;43430;48.204;11.556;2023-01-28T11:26:43;96631.97;;;0.40;100.00
57606;BME280;43430;48.204;11.556;2023-01-28T11:29:30;96628.47;;;0.31;100.00
57606;BME280;43430;48.204;11.556;2023-01-28T11:31:58;96628.06;;;0.26;100.00
57606;BME280;43430;48.204;11.556;2023-01-28T11:34:27;96630.00;;;0.14;100.00
57606;BME280;43430;48.204;11.556;2023-01-28T11:37:01;96627.88;;;-0.10;100.00
57606;BME280;43430;48.204;11.556;2023-01-28T11:39:27;96628.41;;;-0.06;100.00
57606;BME280;43430;48.204;11.556;2023-01-28T11:41:54;96629.09;;;-0.14;100.00
57606;BME280;43430;48.204;11.556;2023-01-28T11:44:27;96632.78;;;-0.07;100.00
57606;BME280;43430;48.204;11.556;2023-01-28T12:01:09;96627.22;;;-0.41;100.00
57606;BME280;43430;48.204;11.556;2023-01-28T12:19:48;96629.66;;;-0.59;100.00
57606;BME280;43430;48.204;11.556;2023-01-28T12:22:44;96626.53;;;-0.53;100.00
57606;BME280;43430;48.204;11.556;2023-01-28T12:25:25;96625.84;;;-0.45;100.00
57606;BME280;43430;48.204;11.556;2023-01-28T12:39:54;96625.59;;;-0.61;100.00
57606;BME280;43430;48.204;11.556;2023-01-28T12:47:52;96635.28;;;-0.34;100.00
57606;BME280;43430;48.204;11.556;2023-01-28T12:50:30;96633.63;;;-0.45;100.00
57606;BME280;43430;48.204;11.556;2023-01-28T12:55:49;96619.03;;;-0.46;100.00
57606;BME280;43430;48.204;11.556;2023-01-28T12:58:21;96620.97;;;-0.48;100.00
57606;BME280;43430;48.204;11.556;2023-01-28T13:00:50;96622.59;;;-0.37;100.00
57606;BME280;43430;48.204;11.556;2023-01-28T13:06:12;96615.22;;;-0.42;100.00
57606;BME280;43430;48.204;11.556;2023-01-28T13:08:39;96616.88;;;-0.41;100.00
57606;BME280;43430;48.204;11.556;2023-01-28T13:11:11;96616.03;;;-0.32;100.00
57606;BME280;43430;48.204;11.556;2023-01-28T13:13:38;96620.94;;;-0.38;100.00
57606;BME280;43430;48.204;11.556;2023-01-28T13:16:08;96619.84;;;-0.36;100.00
57606;BME280;43430;48.204;11.556;2023-01-28T13:23:50;96626.53;;;-0.23;100.00
57606;BME280;43430;48.204;11.556;2023-01-28T13:28:45;96632.91;;;-0.28;100.00
57606;BME280;43430;48.204;11.556;2023-01-28T13:31:14;96640.84;;;-0.29;100.00
57606;BME280;43430;48.204;11.556;2023-01-28T13:33:59;96633.78;;;-0.46;100.00
57606;BME280;43430;48.204;11.556;2023-01-28T13:36:37;96646.31;;;-0.52;100.00
57606;BME280;43430;48.204;11.556;2023-01-28T13:39:24;96650.66;;;-0.42;100.00
57606;BME280;43430;48.204;11.556;2023-01-28T13:41:51;96657.09;;;-0.27;100.00
57606;BME280;43430;48.204;11.556;2023-01-28T13:44:28;96655.16;;;-0.25;100.00
57606;BME280;43430;48.204;11.556;2023-01-28T13:46:58;96658.56;;;-0.25;100.00
57606;BME280;43430;48.204;11.556;2023-01-28T13:49:53;96661.72;;;-0.31;100.00
57606;BME280;43430;48.204;11.556;2023-01-28T13:52:36;96662.66;;;-0.32;100.00
57606;BME280;43430;48.204;11.556;2023-01-28T14:13:56;96675.38;;;-0.48;100.00
57606;BME280;43430;48.204;11.556;2023-01-28T14:16:43;96685.84;;;-0.50;100.00
57606;BME280;43430;48.204;11.556;2023-01-28T14:19:18;96676.19;;;-0.38;100.00
57606;BME280;43430;48.204;11.556;2023-01-28T14:21:48;96667.03;;;-0.42;100.00
57606;BME280;43430;48.204;11.556;2023-01-28T14:24:15;96677.97;;;-0.48;100.00
57606;BME280;43430;48.204;11.556;2023-01-28T14:29:35;96679.16;;;-0.52;100.00
57606;BME280;43430;48.204;11.556;2023-01-28T14:32:24;96688.88;;;-0.44;100.00
57606;BME280;43430;48.204;11.556;2023-01-28T14:34:54;96685.16;;;-0.42;100.00
57606;BME280;43430;48.204;11.556;2023-01-28T14:37:24;96681.91;;;-0.34;100.00